sensor_id;sensor_type;location;lat;lon;timestamp;pressure;altitude;pressure_sealevel;temperature;humidity
20624;BME280;10471;42.736;23.346;2023-07-30T00:01:39;95368.25;;;19.34;100.00
20624;BME280;10471;42.736;23.346;2023-07-30T00:04:04;95357.28;;;19.27;100.00
20624;BME280;10471;42.736;23.346;2023-07-30T00:06:29;95362.41;;;19.20;100.00
20624;BME280;10471;42.736;23.346;2023-07-30T00:08:55;95361.03;;;19.14;100.00
20624;BME280;10471;42.736;23.346;2023-07-30T00:11:20;95358.91;;;19.08;100.00
20624;BME280;10471;42.736;23.346;2023-07-30T00:13:45;95358.91;;;19.08;100.00
20624;BME280;10471;42.736;23.346;2023-07-30T00:16:11;95352.13;;;19.10;100.00
20624;BME280;10471;42.736;23.346;2023-07-30T00:18:36;95354.47;;;19.11;100.00
20624;BME280;10471;42.736;23.346;2023-07-30T00:21:01;95354.34;;;19.08;100.00
20624;BME280;10471;42.736;23.346;2023-07-30T00:23:27;95358.28;;;19.02;100.00
20624;BME280;10471;42.736;23.346;2023-07-30T00:25:52;95362.13;;;18.93;100.00
20624;BME280;10471;42.736;23.346;2023-07-30T00:28:17;95359.78;;;18.91;100.00
20624;BME280;10471;42.736;23.346;2023-07-30T00:30:43;95356.00;;;18.92;100.00
20624;BME280;10471;42.736;23.346;2023-07-30T00:33:08;95346.63;;;18.86;100.00
20624;BME280;10471;42.736;23.346;2023-07-30T00:35:33;95350.16;;;18.78;100.00
20624;BME280;10471;42.736;23.346;2023-07-30T00:37:59;95356.13;;;18.75;100.00
20624;BME280;10471;42.736;23.346;2023-07-30T00:40:24;95344.69;;;18.75;100.00
20624;BME280;10471;42.736;23.346;2023-07-30T00:42:50;95352.91;;;18.70;100.00
20624;BME280;10471;42.736;23.346;2023-07-30T00:45:15;95351.47;;;18.72;100.00
20624;BME280;10471;42.736;23.346;2023-07-30T00:47:41;95355.22;;;18.71;100.00
20624;BME280;10471;42.736;23.346;2023-07-30T00:50:07;95347.41;;;18.66;100.00
20624;BME280;10471;42.736;23.346;2023-07-30T00:52:33;95351.19;;;18.65;100.00
20624;BME280;10471;42.736;23.346;2023-07-30T00:55:01;95357.19;;;18.62;100.00
20624;BME280;10471;42.736;23.346;2023-07-30T00:57:27;95350.28;;;18.61;100.00
20624;BME280;10471;42.736;23.346;2023-07-30T00:59:53;95356.28;;;18.58;100.00
20624;BME280;10471;42.736;23.346;2023-07-30T01:02:19;95351.56;;;18.55;100.00
20624;BME280;10471;42.736;23.346;2023-07-30T01:04:45;95344.03;;;18.57;100.00
20624;BME280;10471;42.736;23.346;2023-07-30T01:07:10;95350.66;;;18.51;100.00
20624;BME280;10471;42.736;23.346;2023-07-30T01:09:36;95350.88;;;18.46;100.00
20624;BME280;10471;42.736;23.346;2023-07-30T01:12:03;95345.72;;;18.42;100.00
20624;BME280;10471;42.736;23.346;2023-07-30T01:14:30;95347.47;;;18.38;100.00
20624;BME280;10471;42.736;23.346;2023-07-30T01:16:58;95354.53;;;18.34;100.00
20624;BME280;10471;42.736;23.346;2023-07-30T01:19:23;95358.97;;;18.30;100.00
20624;BME280;10471;42.736;23.346;2023-07-30T01:21:48;95359.81;;;18.22;100.00
20624;BME280;10471;42.736;23.346;2023-07-30T01:24:14;95356.16;;;18.18;100.00
20624;BME280;10471;42.736;23.346;2023-07-30T01:26:46;95357.31;;;18.17;100.00
20624;BME280;10471;42.736;23.346;2023-07-30T01:29:19;95346.81;;;18.12;100.00
20624;BME280;10471;42.736;23.346;2023-07-30T01:31:49;95348.09;;;18.06;100.00
20624;BME280;10471;42.736;23.346;2023-07-30T01:34:18;95357.06;;;18.01;100.00
20624;BME280;10471;42.736;23.346;2023-07-30T01:36:45;95361.31;;;17.94;100.00
20624;BME280;10471;42.736;23.346;2023-07-30T01:39:12;95355.84;;;17.90;100.00
20624;BME280;10471;42.736;23.346;2023-07-30T01:41:38;95358.19;;;17.92;100.00
20624;BME280;10471;42.736;23.346;2023-07-30T01:44:03;95361.66;;;17.92;100.00
20624;BME280;10471;42.736;23.346;2023-07-30T01:46:29;95356.00;;;17.94;100.00
20624;BME280;10471;42.736;23.346;2023-07-30T01:48:54;95360.84;;;17.92;100.00
20624;BME280;10471;42.736;23.346;2023-07-30T01:51:19;95363.53;;;17.92;100.00
20624;BME280;10471;42.736;23.346;2023-07-30T01:53:45;95352.22;;;17.95;100.00
20624;BME280;10471;42.736;23.346;2023-07-30T01:56:10;95356.66;;;17.91;100.00
20624;BME280;10471;42.736;23.346;2023-07-30T01:58:35;95364.03;;;17.85;100.00
20624;BME280;10471;42.736;23.346;2023-07-30T02:01:01;95357.00;;;17.81;100.00
20624;BME280;10471;42.736;23.346;2023-07-30T02:03:26;95356.34;;;17.84;100.00
20624;BME280;10471;42.736;23.346;2023-07-30T02:05:52;95357.91;;;17.85;100.00
20624;BME280;10471;42.736;23.346;2023-07-30T02:08:17;95373.63;;;17.78;100.00
20624;BME280;10471;42.736;23.346;2023-07-30T02:10:42;95362.66;;;17.71;100.00
20624;BME280;10471;42.736;23.346;2023-07-30T02:13:08;95366.44;;;17.78;100.00
20624;BME280;10471;42.736;23.346;2023-07-30T02:15:33;95367.50;;;17.86;100.00
20624;BME280;10471;42.736;23.346;2023-07-30T02:17:58;95365.44;;;17.83;100.00
20624;BME280;10471;42.736;23.346;2023-07-30T02:20:24;95370.78;;;17.83;100.00
20624;BME280;10471;42.736;23.346;2023-07-30T02:22:49;95376.91;;;17.83;100.00
20624;BME280;10471;42.736;23.346;2023-07-30T02:25:15;95366.72;;;17.77;100.00
20624;BME280;10471;42.736;23.346;2023-07-30T02:27:40;95374.91;;;17.72;100.00
20624;BME280;10471;42.736;23.346;2023-07-30T02:30:06;95374.75;;;17.69;100.00
20624;BME280;10471;42.736;23.346;2023-07-30T02:32:31;95371.47;;;17.63;100.00
20624;BME280;10471;42.736;23.346;2023-07-30T02:34:57;95381.06;;;17.64;100.00
20624;BME280;10471;42.736;23.346;2023-07-30T02:37:22;95375.41;;;17.66;100.00
20624;BME280;10471;42.736;23.346;2023-07-30T02:39:47;95376.81;;;17.63;100.00
20624;BME280;10471;42.736;23.346;2023-07-30T02:42:13;95376.16;;;17.66;100.00
20624;BME280;10471;42.736;23.346;2023-07-30T02:44:38;95375.53;;;17.69;100.00
20624;BME280;10471;42.736;23.346;2023-07-30T02:47:04;95380.06;;;17.69;100.00
20624;BME280;10471;42.736;23.346;2023-07-30T02:49:30;95378.84;;;17.66;100.00
20624;BME280;10471;42.736;23.346;2023-07-30T02:51:55;95385.91;;;17.62;100.00
20624;BME280;10471;42.736;23.346;2023-07-30T02:54:20;95388.75;;;17.57;100.00
20624;BME280;10471;42.736;23.346;2023-07-30T02:56:47;95382.34;;;17.50;100.00
20624;BME280;10471;42.736;23.346;2023-07-30T02:59:12;95382.84;;;17.43;100.00
20624;BME280;10471;42.736;23.346;2023-07-30T03:01:38;95380.78;;;17.40;100.00
20624;BME280;10471;42.736;23.346;2023-07-30T03:04:03;95383.31;;;17.37;100.00
20624;BME280;10471;42.736;23.346;2023-07-30T03:06:29;95381.91;;;17.31;100.00
20624;BME280;10471;42.736;23.346;2023-07-30T03:08:54;95383.63;;;17.27;100.00
20624;BME280;10471;42.736;23.346;2023-07-30T03:11:21;95390.97;;;17.21;100.00
20624;BME280;10471;42.736;23.346;2023-07-30T03:13:46;95390.06;;;17.17;100.00
20624;BME280;10471;42.736;23.346;2023-07-30T03:16:12;95391.31;;;17.11;100.00
20624;BME280;10471;42.736;23.346;2023-07-30T03:18:37;95381.44;;;17.04;100.00
20624;BME280;10471;42.736;23.346;2023-07-30T03:21:03;95388.47;;;17.00;100.00
20624;BME280;10471;42.736;23.346;2023-07-30T03:23:28;95395.88;;;16.94;100.00
20624;BME280;10471;42.736;23.346;2023-07-30T03:25:54;95391.00;;;16.88;100.00
20624;BME280;10471;42.736;23.346;2023-07-30T03:28:19;95391.94;;;16.83;100.00
20624;BME280;10471;42.736;23.346;2023-07-30T03:30:45;95392.88;;;16.79;100.00
20624;BME280;10471;42.736;23.346;2023-07-30T03:33:10;95390.53;;;16.77;100.00
20624;BME280;10471;42.736;23.346;2023-07-30T03:35:35;95390.84;;;16.76;100.00
20624;BME280;10471;42.736;23.346;2023-07-30T03:38:01;95389.59;;;16.73;100.00
20624;BME280;10471;42.736;23.346;2023-07-30T03:40:26;95394.75;;;16.70;100.00
20624;BME280;10471;42.736;23.346;2023-07-30T03:42:52;95390.19;;;16.70;100.00
20624;BME280;10471;42.736;23.346;2023-07-30T03:45:17;95389.44;;;16.70;100.00
20624;BME280;10471;42.736;23.346;2023-07-30T03:47:43;95393.19;;;16.69;100.00
20624;BME280;10471;42.736;23.346;2023-07-30T03:50:08;95390.06;;;16.67;100.00
20624;BME280;10471;42.736;23.346;2023-07-30T03:52:34;95398.50;;;16.69;100.00
20624;BME280;10471;42.736;23.346;2023-07-30T03:54:59;95402.41;;;16.71;100.00
20624;BME280;10471;42.736;23.346;2023-07-30T03:57:24;95400.22;;;16.73;100.00
20624;BME280;10471;42.736;23.346;2023-07-30T03:59:50;95407.25;;;16.78;100.00
20624;BME280;10471;42.736;23.346;2023-07-30T04:02:16;95405.84;;;16.80;100.00
20624;BME280;10471;42.736;23.346;2023-07-30T04:04:42;95404.44;;;16.83;100.00
20624;BME280;10471;42.736;23.346;2023-07-30T04:07:11;95408.22;;;16.82;100.00
20624;BME280;10471;42.736;23.346;2023-07-30T04:09:37;95409.66;;;16.88;100.00
20624;BME280;10471;42.736;23.346;2023-07-30T04:12:02;95412.44;;;16.91;100.00
20624;BME280;10471;42.736;23.346;2023-07-30T04:14:28;95413.41;;;16.95;100.00
20624;BME280;10471;42.736;23.346;2023-07-30T04:16:53;95406.03;;;17.01;100.00
20624;BME280;10471;42.736;23.346;2023-07-30T04:19:18;95405.41;;;17.04;100.00
20624;BME280;10471;42.736;23.346;2023-07-30T04:21:44;95410.56;;;17.08;100.00
20624;BME280;10471;42.736;23.346;2023-07-30T04:24:10;95407.44;;;17.15;100.00
20624;BME280;10471;42.736;23.346;2023-07-30T04:26:35;95405.88;;;17.22;100.00
20624;BME280;10471;42.736;23.346;2023-07-30T04:29:00;95409.66;;;17.30;100.00
20624;BME280;10471;42.736;23.346;2023-07-30T04:31:26;95414.97;;;17.38;100.00
20624;BME280;10471;42.736;23.346;2023-07-30T04:33:51;95415.72;;;17.47;100.00
20624;BME280;10471;42.736;23.346;2023-07-30T04:36:16;95418.06;;;17.57;100.00
20624;BME280;10471;42.736;23.346;2023-07-30T04:38:42;95418.81;;;17.66;100.00
20624;BME280;10471;42.736;23.346;2023-07-30T04:41:07;95421.63;;;17.78;100.00
20624;BME280;10471;42.736;23.346;2023-07-30T04:43:33;95415.94;;;17.88;100.00
20624;BME280;10471;42.736;23.346;2023-07-30T04:45:58;95413.41;;;18.00;100.00
20624;BME280;10471;42.736;23.346;2023-07-30T04:48:23;95417.28;;;18.11;100.00
20624;BME280;10471;42.736;23.346;2023-07-30T04:50:49;95416.28;;;18.24;100.00
20624;BME280;10471;42.736;23.346;2023-07-30T04:53:14;95425.34;;;18.31;100.00
20624;BME280;10471;42.736;23.346;2023-07-30T04:55:41;95415.75;;;18.39;100.00
20624;BME280;10471;42.736;23.346;2023-07-30T04:58:06;95428.84;;;18.52;100.00
20624;BME280;10471;42.736;23.346;2023-07-30T05:00:32;95423.28;;;18.65;100.00
20624;BME280;10471;42.736;23.346;2023-07-30T05:02:57;95424.66;;;18.71;100.00
20624;BME280;10471;42.736;23.346;2023-07-30T05:05:22;95413.59;;;18.81;100.00
20624;BME280;10471;42.736;23.346;2023-07-30T05:07:48;95422.06;;;18.83;100.00
20624;BME280;10471;42.736;23.346;2023-07-30T05:10:13;95419.94;;;18.97;100.00
20624;BME280;10471;42.736;23.346;2023-07-30T05:12:38;95426.94;;;19.10;100.00
20624;BME280;10471;42.736;23.346;2023-07-30T05:15:04;95421.59;;;19.10;100.00
20624;BME280;10471;42.736;23.346;2023-07-30T05:17:30;95419.38;;;19.12;100.00
20624;BME280;10471;42.736;23.346;2023-07-30T05:19:55;95424.44;;;19.25;100.00
20624;BME280;10471;42.736;23.346;2023-07-30T05:22:20;95424.16;;;19.39;100.00
20624;BME280;10471;42.736;23.346;2023-07-30T05:24:46;95420.88;;;19.54;100.00
20624;BME280;10471;42.736;23.346;2023-07-30T05:27:11;95418.88;;;19.63;100.00
20624;BME280;10471;42.736;23.346;2023-07-30T05:29:36;95421.75;;;19.78;100.00
20624;BME280;10471;42.736;23.346;2023-07-30T05:32:02;95417.69;;;19.92;100.00
20624;BME280;10471;42.736;23.346;2023-07-30T05:34:27;95415.00;;;20.04;100.00
20624;BME280;10471;42.736;23.346;2023-07-30T05:36:53;95417.69;;;20.16;100.00
20624;BME280;10471;42.736;23.346;2023-07-30T05:39:18;95422.41;;;20.31;100.00
20624;BME280;10471;42.736;23.346;2023-07-30T05:41:43;95420.06;;;20.42;100.00
20624;BME280;10471;42.736;23.346;2023-07-30T05:44:09;95425.09;;;20.55;100.00
20624;BME280;10471;42.736;23.346;2023-07-30T05:46:34;95429.09;;;20.61;100.00
20624;BME280;10471;42.736;23.346;2023-07-30T05:49:00;95428.53;;;20.67;100.00
20624;BME280;10471;42.736;23.346;2023-07-30T05:51:25;95432.00;;;20.80;100.00
20624;BME280;10471;42.736;23.346;2023-07-30T05:53:50;95436.44;;;20.88;100.00
20624;BME280;10471;42.736;23.346;2023-07-30T05:56:16;95435.44;;;21.04;100.00
20624;BME280;10471;42.736;23.346;2023-07-30T05:58:43;95438.22;;;21.08;100.00
20624;BME280;10471;42.736;23.346;2023-07-30T06:01:09;95439.28;;;21.18;100.00
20624;BME280;10471;42.736;23.346;2023-07-30T06:03:34;95434.84;;;21.22;100.00
20624;BME280;10471;42.736;23.346;2023-07-30T06:06:01;95437.28;;;21.27;100.00
20624;BME280;10471;42.736;23.346;2023-07-30T06:08:26;95436.59;;;21.30;100.00
20624;BME280;10471;42.736;23.346;2023-07-30T06:10:52;95433.75;;;21.39;100.00
20624;BME280;10471;42.736;23.346;2023-07-30T06:13:17;95422.03;;;21.43;100.00
20624;BME280;10471;42.736;23.346;2023-07-30T06:15:43;95434.38;;;21.60;100.00
20624;BME280;10471;42.736;23.346;2023-07-30T06:18:09;95429.75;;;21.72;100.00
20624;BME280;10471;42.736;23.346;2023-07-30T06:20:34;95434.34;;;21.87;100.00
20624;BME280;10471;42.736;23.346;2023-07-30T06:23:00;95425.47;;;21.98;100.00
20624;BME280;10471;42.736;23.346;2023-07-30T06:25:25;95424.44;;;22.18;100.00
20624;BME280;10471;42.736;23.346;2023-07-30T06:27:50;95428.53;;;22.28;100.00
20624;BME280;10471;42.736;23.346;2023-07-30T06:30:16;95431.44;;;22.23;100.00
20624;BME280;10471;42.736;23.346;2023-07-30T06:32:42;95422.63;;;22.38;100.00
20624;BME280;10471;42.736;23.346;2023-07-30T06:35:07;95420.03;;;22.56;100.00
20624;BME280;10471;42.736;23.346;2023-07-30T06:37:33;95416.28;;;22.76;100.00
20624;BME280;10471;42.736;23.346;2023-07-30T06:39:59;95418.94;;;22.92;100.00
20624;BME280;10471;42.736;23.346;2023-07-30T06:42:24;95417.28;;;22.87;100.00
20624;BME280;10471;42.736;23.346;2023-07-30T06:44:49;95421.69;;;22.95;100.00
20624;BME280;10471;42.736;23.346;2023-07-30T06:47:15;95405.09;;;23.09;100.00
20624;BME280;10471;42.736;23.346;2023-07-30T06:49:40;95401.56;;;23.05;100.00
20624;BME280;10471;42.736;23.346;2023-07-30T06:52:09;95404.63;;;23.22;100.00
20624;BME280;10471;42.736;23.346;2023-07-30T06:54:34;95397.19;;;23.34;100.00
20624;BME280;10471;42.736;23.346;2023-07-30T06:56:59;95389.06;;;23.50;100.00
20624;BME280;10471;42.736;23.346;2023-07-30T06:59:25;95394.03;;;23.70;100.00
20624;BME280;10471;42.736;23.346;2023-07-30T07:01:50;95386.53;;;23.98;100.00
20624;BME280;10471;42.736;23.346;2023-07-30T07:04:15;95389.44;;;24.12;100.00
20624;BME280;10471;42.736;23.346;2023-07-30T07:06:41;95385.50;;;24.28;98.77
20624;BME280;10471;42.736;23.346;2023-07-30T07:09:06;95384.91;;;24.38;100.00
20624;BME280;10471;42.736;23.346;2023-07-30T07:11:31;95379.34;;;24.50;100.00
20624;BME280;10471;42.736;23.346;2023-07-30T07:13:57;95379.94;;;24.66;94.90
20624;BME280;10471;42.736;23.346;2023-07-30T07:16:22;95387.53;;;24.83;94.68
20624;BME280;10471;42.736;23.346;2023-07-30T07:18:48;95376.97;;;24.97;89.21
20624;BME280;10471;42.736;23.346;2023-07-30T07:21:14;95377.88;;;25.08;88.55
20624;BME280;10471;42.736;23.346;2023-07-30T07:23:39;95377.03;;;25.04;86.36
20624;BME280;10471;42.736;23.346;2023-07-30T07:26:05;95370.31;;;25.16;90.63
20624;BME280;10471;42.736;23.346;2023-07-30T07:28:31;95372.75;;;25.28;88.36
20624;BME280;10471;42.736;23.346;2023-07-30T07:30:56;95365.88;;;25.34;84.58
20624;BME280;10471;42.736;23.346;2023-07-30T07:33:22;95365.22;;;25.44;87.86
20624;BME280;10471;42.736;23.346;2023-07-30T07:35:47;95365.66;;;25.46;75.15
20624;BME280;10471;42.736;23.346;2023-07-30T07:38:14;95356.94;;;25.60;80.87
20624;BME280;10471;42.736;23.346;2023-07-30T07:40:39;95358.59;;;25.71;76.64
20624;BME280;10471;42.736;23.346;2023-07-30T07:43:06;95359.84;;;25.77;72.38
20624;BME280;10471;42.736;23.346;2023-07-30T07:45:31;95350.34;;;25.90;73.56
20624;BME280;10471;42.736;23.346;2023-07-30T07:47:57;95352.03;;;26.05;71.02
20624;BME280;10471;42.736;23.346;2023-07-30T07:50:22;95355.22;;;26.17;71.24
20624;BME280;10471;42.736;23.346;2023-07-30T07:52:47;95352.19;;;26.26;71.65
20624;BME280;10471;42.736;23.346;2023-07-30T07:55:13;95349.94;;;26.35;65.15
20624;BME280;10471;42.736;23.346;2023-07-30T07:57:38;95344.63;;;26.42;73.74
20624;BME280;10471;42.736;23.346;2023-07-30T08:00:04;95350.50;;;26.50;68.86
20624;BME280;10471;42.736;23.346;2023-07-30T08:02:30;95340.13;;;26.63;67.96
20624;BME280;10471;42.736;23.346;2023-07-30T08:04:56;95341.38;;;26.72;66.53
20624;BME280;10471;42.736;23.346;2023-07-30T08:07:21;95335.59;;;26.77;64.82
20624;BME280;10471;42.736;23.346;2023-07-30T08:09:46;95338.75;;;26.86;65.44
20624;BME280;10471;42.736;23.346;2023-07-30T08:12:12;95336.09;;;26.97;65.11
20624;BME280;10471;42.736;23.346;2023-07-30T08:14:38;95330.34;;;27.05;72.82
20624;BME280;10471;42.736;23.346;2023-07-30T08:17:03;95328.84;;;27.11;65.44
20624;BME280;10471;42.736;23.346;2023-07-30T08:19:30;95318.84;;;27.22;66.64
20624;BME280;10471;42.736;23.346;2023-07-30T08:21:55;95329.72;;;27.32;65.39
20624;BME280;10471;42.736;23.346;2023-07-30T08:24:23;95330.50;;;27.40;64.24
20624;BME280;10471;42.736;23.346;2023-07-30T08:26:48;95337.44;;;27.34;54.09
20624;BME280;10471;42.736;23.346;2023-07-30T08:29:14;95325.03;;;27.26;59.19
20624;BME280;10471;42.736;23.346;2023-07-30T08:31:40;95320.47;;;27.44;62.32
20624;BME280;10471;42.736;23.346;2023-07-30T08:34:06;95313.94;;;27.59;55.65
20624;BME280;10471;42.736;23.346;2023-07-30T08:36:31;95315.94;;;27.79;58.56
20624;BME280;10471;42.736;23.346;2023-07-30T08:38:57;95320.97;;;27.87;54.63
20624;BME280;10471;42.736;23.346;2023-07-30T08:41:23;95311.72;;;28.02;55.59
20624;BME280;10471;42.736;23.346;2023-07-30T08:43:48;95310.53;;;28.14;53.91
20624;BME280;10471;42.736;23.346;2023-07-30T08:46:15;95311.31;;;28.00;50.89
20624;BME280;10471;42.736;23.346;2023-07-30T08:48:41;95296.59;;;28.08;51.10
20624;BME280;10471;42.736;23.346;2023-07-30T08:51:06;95300.84;;;28.16;53.64
20624;BME280;10471;42.736;23.346;2023-07-30T08:53:32;95297.38;;;28.23;51.54
20624;BME280;10471;42.736;23.346;2023-07-30T08:55:58;95309.03;;;28.37;45.92
20624;BME280;10471;42.736;23.346;2023-07-30T08:58:26;95298.16;;;28.41;50.13
20624;BME280;10471;42.736;23.346;2023-07-30T09:00:55;95295.81;;;28.53;46.54
20624;BME280;10471;42.736;23.346;2023-07-30T09:03:23;95300.50;;;28.49;43.37
20624;BME280;10471;42.736;23.346;2023-07-30T09:05:50;95302.41;;;28.49;43.95
20624;BME280;10471;42.736;23.346;2023-07-30T09:08:15;95301.25;;;28.53;45.87
20624;BME280;10471;42.736;23.346;2023-07-30T09:10:45;95291.94;;;28.54;46.49
20624;BME280;10471;42.736;23.346;2023-07-30T09:13:10;95287.25;;;28.72;47.28
20624;BME280;10471;42.736;23.346;2023-07-30T09:15:38;95292.69;;;28.82;50.03
20624;BME280;10471;42.736;23.346;2023-07-30T09:18:06;95290.31;;;28.98;46.45
20624;BME280;10471;42.736;23.346;2023-07-30T09:20:38;95280.97;;;29.10;49.81
20624;BME280;10471;42.736;23.346;2023-07-30T09:23:05;95287.16;;;29.10;44.84
20624;BME280;10471;42.736;23.346;2023-07-30T09:25:31;95284.75;;;29.22;45.07
20624;BME280;10471;42.736;23.346;2023-07-30T09:27:56;95284.81;;;29.19;43.73
20624;BME280;10471;42.736;23.346;2023-07-30T09:30:23;95283.66;;;29.17;44.56
20624;BME280;10471;42.736;23.346;2023-07-30T09:32:53;95270.81;;;29.24;45.10
20624;BME280;10471;42.736;23.346;2023-07-30T09:35:18;95270.00;;;29.34;45.61
20624;BME280;10471;42.736;23.346;2023-07-30T09:37:44;95266.06;;;29.45;44.34
20624;BME280;10471;42.736;23.346;2023-07-30T09:40:11;95257.38;;;29.68;42.37
20624;BME280;10471;42.736;23.346;2023-07-30T09:42:46;95257.75;;;29.73;42.26
20624;BME280;10471;42.736;23.346;2023-07-30T09:45:21;95258.09;;;29.75;41.33
20624;BME280;10471;42.736;23.346;2023-07-30T09:47:50;95255.69;;;29.91;41.56
20624;BME280;10471;42.736;23.346;2023-07-30T09:50:16;95247.81;;;30.03;41.48
20624;BME280;10471;42.736;23.346;2023-07-30T09:52:42;95244.16;;;30.24;42.01
20624;BME280;10471;42.736;23.346;2023-07-30T09:55:08;95245.53;;;30.46;41.82
20624;BME280;10471;42.736;23.346;2023-07-30T09:57:34;95248.16;;;30.53;38.18
20624;BME280;10471;42.736;23.346;2023-07-30T10:00:00;95242.59;;;30.66;40.01
20624;BME280;10471;42.736;23.346;2023-07-30T10:02:28;95241.06;;;30.62;40.33
20624;BME280;10471;42.736;23.346;2023-07-30T10:04:57;95241.69;;;30.76;40.66
20624;BME280;10471;42.736;23.346;2023-07-30T10:07:24;95233.81;;;30.85;38.66
20624;BME280;10471;42.736;23.346;2023-07-30T10:09:52;95234.97;;;30.84;37.34
20624;BME280;10471;42.736;23.346;2023-07-30T10:12:27;95226.91;;;30.77;37.72
20624;BME280;10471;42.736;23.346;2023-07-30T10:14:55;95230.16;;;30.65;37.08
20624;BME280;10471;42.736;23.346;2023-07-30T10:17:21;95216.13;;;30.67;37.71
20624;BME280;10471;42.736;23.346;2023-07-30T10:19:48;95210.66;;;30.70;38.18
20624;BME280;10471;42.736;23.346;2023-07-30T10:22:20;95208.81;;;30.97;40.12
20624;BME280;10471;42.736;23.346;2023-07-30T10:25:05;95205.19;;;31.33;38.05
20624;BME280;10471;42.736;23.346;2023-07-30T10:27:38;95210.41;;;31.51;35.77
20624;BME280;10471;42.736;23.346;2023-07-30T10:30:10;95202.66;;;31.49;35.71
20624;BME280;10471;42.736;23.346;2023-07-30T10:32:59;95202.41;;;31.37;35.83
20624;BME280;10471;42.736;23.346;2023-07-30T10:35:44;95194.78;;;31.55;36.38
20624;BME280;10471;42.736;23.346;2023-07-30T10:38:29;95196.13;;;31.70;36.75
20624;BME280;10471;42.736;23.346;2023-07-30T10:43:37;95199.91;;;32.25;35.94
20624;BME280;10471;42.736;23.346;2023-07-30T10:46:04;95182.94;;;32.33;35.82
20624;BME280;10471;42.736;23.346;2023-07-30T10:48:34;95183.81;;;32.53;36.98
20624;BME280;10471;42.736;23.346;2023-07-30T10:51:01;95179.44;;;32.75;35.98
20624;BME280;10471;42.736;23.346;2023-07-30T10:53:27;95168.34;;;33.05;37.00
20624;BME280;10471;42.736;23.346;2023-07-30T10:55:53;95169.59;;;33.35;35.69
20624;BME280;10471;42.736;23.346;2023-07-30T10:58:20;95167.13;;;33.41;34.23
20624;BME280;10471;42.736;23.346;2023-07-30T11:00:46;95167.44;;;33.62;33.54
20624;BME280;10471;42.736;23.346;2023-07-30T11:03:11;95161.47;;;33.83;34.40
20624;BME280;10471;42.736;23.346;2023-07-30T11:05:39;95154.97;;;33.93;34.68
20624;BME280;10471;42.736;23.346;2023-07-30T11:08:07;95143.25;;;34.08;35.81
20624;BME280;10471;42.736;23.346;2023-07-30T11:10:46;95145.34;;;34.33;33.30
20624;BME280;10471;42.736;23.346;2023-07-30T11:13:13;95140.06;;;34.54;32.95
20624;BME280;10471;42.736;23.346;2023-07-30T11:15:45;95136.78;;;34.59;33.93
20624;BME280;10471;42.736;23.346;2023-07-30T11:18:11;95121.63;;;34.70;31.57
20624;BME280;10471;42.736;23.346;2023-07-30T11:20:37;95122.28;;;34.46;31.12
20624;BME280;10471;42.736;23.346;2023-07-30T11:23:17;95126.69;;;34.28;32.10
20624;BME280;10471;42.736;23.346;2023-07-30T11:25:45;95123.50;;;34.29;32.82
20624;BME280;10471;42.736;23.346;2023-07-30T11:28:11;95118.59;;;34.53;32.64
20624;BME280;10471;42.736;23.346;2023-07-30T11:30:36;95118.78;;;34.46;30.96
20624;BME280;10471;42.736;23.346;2023-07-30T11:33:02;95105.56;;;34.57;31.08
20624;BME280;10471;42.736;23.346;2023-07-30T11:35:28;95113.41;;;34.70;31.42
20624;BME280;10471;42.736;23.346;2023-07-30T11:37:54;95113.72;;;34.72;31.16
20624;BME280;10471;42.736;23.346;2023-07-30T11:40:19;95106.84;;;34.93;31.25
20624;BME280;10471;42.736;23.346;2023-07-30T11:42:47;95106.25;;;35.01;30.32
20624;BME280;10471;42.736;23.346;2023-07-30T11:45:22;95102.41;;;35.36;31.57
20624;BME280;10471;42.736;23.346;2023-07-30T11:47:48;95097.69;;;35.74;30.49
20624;BME280;10471;42.736;23.346;2023-07-30T11:50:15;95094.66;;;36.05;32.47
20624;BME280;10471;42.736;23.346;2023-07-30T11:52:56;95100.56;;;36.16;30.47
20624;BME280;10471;42.736;23.346;2023-07-30T11:55:22;95093.44;;;36.40;30.09
20624;BME280;10471;42.736;23.346;2023-07-30T11:57:49;95094.47;;;36.55;29.22
20624;BME280;10471;42.736;23.346;2023-07-30T12:00:15;95083.41;;;36.68;31.36
20624;BME280;10471;42.736;23.346;2023-07-30T12:02:41;95077.03;;;36.15;29.52
20624;BME280;10471;42.736;23.346;2023-07-30T12:05:10;95075.84;;;36.16;29.32
20624;BME280;10471;42.736;23.346;2023-07-30T12:07:39;95074.38;;;36.24;30.28
20624;BME280;10471;42.736;23.346;2023-07-30T12:10:09;95060.09;;;35.83;29.87
20624;BME280;10471;42.736;23.346;2023-07-30T12:12:35;95059.97;;;35.87;30.20
20624;BME280;10471;42.736;23.346;2023-07-30T12:15:00;95062.97;;;35.92;30.63
20624;BME280;10471;42.736;23.346;2023-07-30T12:17:25;95061.72;;;36.05;29.64
20624;BME280;10471;42.736;23.346;2023-07-30T12:19:51;95051.47;;;36.40;30.14
20624;BME280;10471;42.736;23.346;2023-07-30T12:22:16;95049.63;;;36.24;30.35
20624;BME280;10471;42.736;23.346;2023-07-30T12:24:41;95044.72;;;36.19;30.35
20624;BME280;10471;42.736;23.346;2023-07-30T12:27:07;95034.94;;;35.85;30.25
20624;BME280;10471;42.736;23.346;2023-07-30T12:29:32;95039.78;;;35.93;29.65
20624;BME280;10471;42.736;23.346;2023-07-30T12:31:57;95034.28;;;35.93;28.63
20624;BME280;10471;42.736;23.346;2023-07-30T12:34:23;95031.63;;;35.90;29.90
20624;BME280;10471;42.736;23.346;2023-07-30T12:36:49;95025.66;;;36.03;29.18
20624;BME280;10471;42.736;23.346;2023-07-30T12:39:14;95026.47;;;36.04;29.22
20624;BME280;10471;42.736;23.346;2023-07-30T12:41:40;95028.06;;;36.14;28.61
20624;BME280;10471;42.736;23.346;2023-07-30T12:44:05;95013.81;;;36.49;28.76